sensor_id;sensor_type;location;lat;lon;timestamp;pressure;altitude;pressure_sealevel;temperature;humidity
47897;BME280;39629;51.400;5.494;2023-09-19T00:02:54;100559.19;;;14.05;100.00
47897;BME280;39629;51.400;5.494;2023-09-19T00:07:57;100564.59;;;14.00;100.00
47897;BME280;39629;51.400;5.494;2023-09-19T00:13:01;100565.75;;;13.87;100.00
47897;BME280;39629;51.400;5.494;2023-09-19T00:18:06;100570.22;;;13.83;100.00
47897;BME280;39629;51.400;5.494;2023-09-19T00:23:09;100578.22;;;13.80;100.00
47897;BME280;39629;51.400;5.494;2023-09-19T00:28:12;100579.78;;;13.90;100.00
47897;BME280;39629;51.400;5.494;2023-09-19T00:33:14;100589.53;;;13.87;100.00
47897;BME280;39629;51.400;5.494;2023-09-19T00:38:16;100592.22;;;13.85;100.00
47897;BME280;39629;51.400;5.494;2023-09-19T00:43:22;100588.16;;;13.67;100.00
47897;BME280;39629;51.400;5.494;2023-09-19T00:48:25;100597.78;;;13.70;100.00
47897;BME280;39629;51.400;5.494;2023-09-19T00:53:31;100598.53;;;13.78;100.00
47897;BME280;39629;51.400;5.494;2023-09-19T00:58:36;100616.13;;;13.79;100.00
47897;BME280;39629;51.400;5.494;2023-09-19T01:03:38;100611.06;;;13.68;100.00
47897;BME280;39629;51.400;5.494;2023-09-19T01:08:41;100634.94;;;13.63;100.00
47897;BME280;39629;51.400;5.494;2023-09-19T01:13:51;100644.78;;;13.55;100.00
47897;BME280;39629;51.400;5.494;2023-09-19T01:19:05;100645.69;;;13.54;100.00
47897;BME280;39629;51.400;5.494;2023-09-19T01:29:52;100642.25;;;13.51;100.00
47897;BME280;39629;51.400;5.494;2023-09-19T01:34:56;100647.72;;;13.40;100.00
47897;BME280;39629;51.400;5.494;2023-09-19T01:40:01;100649.50;;;13.38;100.00
47897;BME280;39629;51.400;5.494;2023-09-19T01:45:22;100657.50;;;13.35;100.00
47897;BME280;39629;51.400;5.494;2023-09-19T01:50:30;100654.00;;;13.33;100.00
47897;BME280;39629;51.400;5.494;2023-09-19T01:55:41;100647.03;;;13.28;100.00
47897;BME280;39629;51.400;5.494;2023-09-19T02:00:46;100657.59;;;13.27;100.00
47897;BME280;39629;51.400;5.494;2023-09-19T02:05:52;100654.09;;;13.26;100.00
47897;BME280;39629;51.400;5.494;2023-09-19T02:10:54;100658.56;;;13.23;100.00
47897;BME280;39629;51.400;5.494;2023-09-19T02:15:56;100651.59;;;13.19;100.00
47897;BME280;39629;51.400;5.494;2023-09-19T02:20:59;100656.09;;;13.14;100.00
47897;BME280;39629;51.400;5.494;2023-09-19T02:26:00;100645.47;;;13.17;100.00
47897;BME280;39629;51.400;5.494;2023-09-19T02:31:02;100653.38;;;13.17;100.00
47897;BME280;39629;51.400;5.494;2023-09-19T02:36:07;100664.31;;;12.93;100.00
47897;BME280;39629;51.400;5.494;2023-09-19T02:41:09;100659.69;;;13.08;100.00
47897;BME280;39629;51.400;5.494;2023-09-19T02:46:12;100658.00;;;13.04;100.00
47897;BME280;39629;51.400;5.494;2023-09-19T02:51:15;100657.91;;;13.10;100.00
47897;BME280;39629;51.400;5.494;2023-09-19T02:56:17;100671.34;;;12.94;100.00
47897;BME280;39629;51.400;5.494;2023-09-19T03:01:18;100676.53;;;12.99;100.00
47897;BME280;39629;51.400;5.494;2023-09-19T03:06:22;100675.75;;;12.95;100.00
47897;BME280;39629;51.400;5.494;2023-09-19T03:11:24;100675.53;;;13.09;100.00
47897;BME280;39629;51.400;5.494;2023-09-19T03:16:30;100681.03;;;12.95;100.00
47897;BME280;39629;51.400;5.494;2023-09-19T03:21:35;100673.19;;;12.88;100.00
47897;BME280;39629;51.400;5.494;2023-09-19T03:26:36;100676.69;;;12.91;100.00
47897;BME280;39629;51.400;5.494;2023-09-19T03:31:38;100679.38;;;12.88;100.00
47897;BME280;39629;51.400;5.494;2023-09-19T03:36:43;100681.22;;;12.83;100.00
47897;BME280;39629;51.400;5.494;2023-09-19T03:41:45;100682.16;;;12.79;100.00
47897;BME280;39629;51.400;5.494;2023-09-19T03:46:47;100673.38;;;12.78;100.00
47897;BME280;39629;51.400;5.494;2023-09-19T03:51:50;100672.31;;;12.89;100.00
47897;BME280;39629;51.400;5.494;2023-09-19T03:56:52;100667.91;;;12.89;100.00
47897;BME280;39629;51.400;5.494;2023-09-19T04:01:54;100665.28;;;12.88;100.00
47897;BME280;39629;51.400;5.494;2023-09-19T04:06:58;100662.78;;;12.80;100.00
47897;BME280;39629;51.400;5.494;2023-09-19T04:12:01;100666.19;;;12.88;100.00
47897;BME280;39629;51.400;5.494;2023-09-19T04:17:03;100665.34;;;12.83;100.00
47897;BME280;39629;51.400;5.494;2023-09-19T04:22:07;100665.00;;;13.05;100.00
47897;BME280;39629;51.400;5.494;2023-09-19T04:27:10;100671.22;;;13.04;100.00
47897;BME280;39629;51.400;5.494;2023-09-19T04:32:12;100685.97;;;13.16;100.00
47897;BME280;39629;51.400;5.494;2023-09-19T04:37:17;100702.00;;;13.05;100.00
47897;BME280;39629;51.400;5.494;2023-09-19T04:42:19;100700.16;;;13.10;100.00
47897;BME280;39629;51.400;5.494;2023-09-19T04:47:21;100723.13;;;13.05;100.00
47897;BME280;39629;51.400;5.494;2023-09-19T04:52:25;100720.34;;;13.16;100.00
47897;BME280;39629;51.400;5.494;2023-09-19T04:57:26;100726.31;;;13.28;100.00
47897;BME280;39629;51.400;5.494;2023-09-19T05:02:29;100740.44;;;13.26;100.00
47897;BME280;39629;51.400;5.494;2023-09-19T05:07:32;100742.00;;;13.38;100.00
47897;BME280;39629;51.400;5.494;2023-09-19T05:12:34;100748.13;;;13.41;100.00
47897;BME280;39629;51.400;5.494;2023-09-19T05:17:36;100750.81;;;13.37;100.00
47897;BME280;39629;51.400;5.494;2023-09-19T05:22:40;100753.69;;;13.24;100.00
47897;BME280;39629;51.400;5.494;2023-09-19T05:27:42;100765.97;;;13.28;100.00
47897;BME280;39629;51.400;5.494;2023-09-19T05:32:43;100758.94;;;13.26;100.00
47897;BME280;39629;51.400;5.494;2023-09-19T05:37:47;100754.66;;;13.19;100.00
47897;BME280;39629;51.400;5.494;2023-09-19T05:42:51;100754.56;;;13.23;100.00
47897;BME280;39629;51.400;5.494;2023-09-19T05:47:53;100758.97;;;13.24;100.00
47897;BME280;39629;51.400;5.494;2023-09-19T05:53:06;100760.69;;;13.28;100.00
47897;BME280;39629;51.400;5.494;2023-09-19T05:58:08;100751.94;;;13.23;100.00
47897;BME280;39629;51.400;5.494;2023-09-19T06:03:10;100751.84;;;13.28;100.00
47897;BME280;39629;51.400;5.494;2023-09-19T06:08:15;100751.78;;;13.34;100.00
47897;BME280;39629;51.400;5.494;2023-09-19T06:13:16;100755.19;;;13.39;100.00
47897;BME280;39629;51.400;5.494;2023-09-19T06:18:20;100763.88;;;13.48;100.00
47897;BME280;39629;51.400;5.494;2023-09-19T06:23:23;100757.59;;;13.55;100.00
47897;BME280;39629;51.400;5.494;2023-09-19T06:28:26;100772.50;;;13.60;100.00
47897;BME280;39629;51.400;5.494;2023-09-19T06:33:28;100774.19;;;13.65;100.00
47897;BME280;39629;51.400;5.494;2023-09-19T06:38:33;100773.25;;;13.69;100.00
47897;BME280;39629;51.400;5.494;2023-09-19T06:43:36;100788.88;;;13.81;100.00
47897;BME280;39629;51.400;5.494;2023-09-19T06:48:37;100790.59;;;13.88;100.00
47897;BME280;39629;51.400;5.494;2023-09-19T06:53:41;100792.22;;;13.95;100.00
47897;BME280;39629;51.400;5.494;2023-09-19T06:58:42;100792.91;;;14.07;100.00
47897;BME280;39629;51.400;5.494;2023-09-19T07:03:44;100791.03;;;14.12;100.00
47897;BME280;39629;51.400;5.494;2023-09-19T07:08:48;100802.41;;;14.17;100.00
47897;BME280;39629;51.400;5.494;2023-09-19T07:13:50;100794.25;;;14.28;100.00
47897;BME280;39629;51.400;5.494;2023-09-19T07:18:52;100790.47;;;14.43;100.00
47897;BME280;39629;51.400;5.494;2023-09-19T07:23:55;100796.47;;;14.51;100.00
47897;BME280;39629;51.400;5.494;2023-09-19T07:28:57;100795.50;;;14.55;100.00
47897;BME280;39629;51.400;5.494;2023-09-19T07:33:58;100800.41;;;14.74;100.00
47897;BME280;39629;51.400;5.494;2023-09-19T07:39:01;100792.38;;;14.80;100.00
47897;BME280;39629;51.400;5.494;2023-09-19T07:44:07;100797.97;;;15.07;100.00
47897;BME280;39629;51.400;5.494;2023-09-19T07:49:10;100792.72;;;15.44;100.00
47897;BME280;39629;51.400;5.494;2023-09-19T07:54:13;100803.00;;;15.58;100.00
47897;BME280;39629;51.400;5.494;2023-09-19T07:59:14;100801.06;;;15.65;100.00
47897;BME280;39629;51.400;5.494;2023-09-19T08:04:16;100802.06;;;15.95;100.00
47897;BME280;39629;51.400;5.494;2023-09-19T08:09:20;100808.16;;;15.99;100.00
47897;BME280;39629;51.400;5.494;2023-09-19T08:14:22;100800.00;;;16.07;100.00
47897;BME280;39629;51.400;5.494;2023-09-19T08:19:25;100801.63;;;16.47;100.00
47897;BME280;39629;51.400;5.494;2023-09-19T08:24:30;100795.88;;;16.62;100.00
47897;BME280;39629;51.400;5.494;2023-09-19T08:29:33;100799.56;;;16.86;100.00
47897;BME280;39629;51.400;5.494;2023-09-19T08:34:36;100801.00;;;16.98;100.00
47897;BME280;39629;51.400;5.494;2023-09-19T08:39:40;100796.81;;;17.19;100.00
47897;BME280;39629;51.400;5.494;2023-09-19T08:44:41;100814.16;;;17.61;100.00
47897;BME280;39629;51.400;5.494;2023-09-19T08:49:56;100806.44;;;17.80;100.00
47897;BME280;39629;51.400;5.494;2023-09-19T08:55:03;100801.69;;;17.63;100.00
47897;BME280;39629;51.400;5.494;2023-09-19T09:00:12;100799.06;;;17.88;100.00
47897;BME280;39629;51.400;5.494;2023-09-19T09:05:17;100809.81;;;17.85;100.00
47897;BME280;39629;51.400;5.494;2023-09-19T09:10:25;100804.72;;;18.04;100.00
47897;BME280;39629;51.400;5.494;2023-09-19T09:15:27;100804.53;;;18.36;100.00
47897;BME280;39629;51.400;5.494;2023-09-19T09:20:31;100791.47;;;18.03;100.00
47897;BME280;39629;51.400;5.494;2023-09-19T09:25:51;100789.31;;;18.39;100.00
47897;BME280;39629;51.400;5.494;2023-09-19T09:30:57;100803.16;;;18.75;100.00
47897;BME280;39629;51.400;5.494;2023-09-19T09:36:00;100814.72;;;19.21;100.00
47897;BME280;39629;51.400;5.494;2023-09-19T09:41:04;100811.41;;;18.92;100.00
47897;BME280;39629;51.400;5.494;2023-09-19T09:46:10;100807.69;;;19.42;100.00
47897;BME280;39629;51.400;5.494;2023-09-19T09:51:35;100797.47;;;18.84;100.00
47897;BME280;39629;51.400;5.494;2023-09-19T09:56:52;100795.94;;;19.46;100.00
47897;BME280;39629;51.400;5.494;2023-09-19T10:01:54;100797.31;;;19.99;100.00
47897;BME280;39629;51.400;5.494;2023-09-19T10:06:57;100783.84;;;19.37;100.00
47897;BME280;39629;51.400;5.494;2023-09-19T10:12:07;100788.56;;;19.53;100.00
47897;BME280;39629;51.400;5.494;2023-09-19T10:17:13;100777.28;;;19.22;100.00
47897;BME280;39629;51.400;5.494;2023-09-19T10:22:20;100774.25;;;19.10;100.00
47897;BME280;39629;51.400;5.494;2023-09-19T10:27:25;100765.47;;;19.30;100.00
47897;BME280;39629;51.400;5.494;2023-09-19T10:32:30;100766.53;;;19.70;100.00
47897;BME280;39629;51.400;5.494;2023-09-19T10:37:34;100778.88;;;19.93;100.00
47897;BME280;39629;51.400;5.494;2023-09-19T10:42:40;100794.44;;;20.04;100.00
47897;BME280;39629;51.400;5.494;2023-09-19T10:47:43;100786.22;;;19.45;100.00
47897;BME280;39629;51.400;5.494;2023-09-19T10:52:45;100782.94;;;20.22;100.00
47897;BME280;39629;51.400;5.494;2023-09-19T10:57:51;100766.31;;;20.76;100.00
47897;BME280;39629;51.400;5.494;2023-09-19T11:03:21;100788.00;;;20.70;100.00
47897;BME280;39629;51.400;5.494;2023-09-19T11:08:30;100772.25;;;20.83;100.00
47897;BME280;39629;51.400;5.494;2023-09-19T11:13:34;100745.94;;;20.92;100.00
47897;BME280;39629;51.400;5.494;2023-09-19T11:18:53;100748.81;;;20.50;100.00
47897;BME280;39629;51.400;5.494;2023-09-19T11:24:29;100741.16;;;20.80;100.00
47897;BME280;39629;51.400;5.494;2023-09-19T11:29:37;100736.75;;;20.98;100.00
47897;BME280;39629;51.400;5.494;2023-09-19T11:34:47;100733.63;;;21.26;100.00
47897;BME280;39629;51.400;5.494;2023-09-19T11:40:05;100720.81;;;21.33;100.00
47897;BME280;39629;51.400;5.494;2023-09-19T11:51:14;100716.75;;;21.43;100.00
47897;BME280;39629;51.400;5.494;2023-09-19T11:56:27;100709.88;;;21.38;100.00
47897;BME280;39629;51.400;5.494;2023-09-19T12:01:30;100713.94;;;21.08;100.00
47897;BME280;39629;51.400;5.494;2023-09-19T12:06:33;100701.16;;;20.96;100.00
47897;BME280;39629;51.400;5.494;2023-09-19T12:11:42;100684.50;;;20.72;100.00
47897;BME280;39629;51.400;5.494;2023-09-19T12:16:51;100696.78;;;20.95;100.00
47897;BME280;39629;51.400;5.494;2023-09-19T12:22:00;100695.34;;;20.88;100.00
47897;BME280;39629;51.400;5.494;2023-09-19T12:27:06;100698.59;;;20.75;100.00
47897;BME280;39629;51.400;5.494;2023-09-19T12:32:08;100692.03;;;20.83;100.00
47897;BME280;39629;51.400;5.494;2023-09-19T12:37:12;100700.53;;;21.10;100.00
47897;BME280;39629;51.400;5.494;2023-09-19T12:42:16;100708.28;;;20.40;100.00
47897;BME280;39629;51.400;5.494;2023-09-19T12:47:18;100703.84;;;20.39;100.00
47897;BME280;39629;51.400;5.494;2023-09-19T12:52:24;100709.22;;;20.58;100.00
47897;BME280;39629;51.400;5.494;2023-09-19T12:57:26;100693.75;;;20.46;100.00
47897;BME280;39629;51.400;5.494;2023-09-19T13:02:28;100697.03;;;20.71;100.00
47897;BME280;39629;51.400;5.494;2023-09-19T13:07:44;100693.28;;;21.12;100.00
47897;BME280;39629;51.400;5.494;2023-09-19T13:12:47;100699.34;;;21.16;100.00
47897;BME280;39629;51.400;5.494;2023-09-19T13:17:49;100682.91;;;20.87;100.00
47897;BME280;39629;51.400;5.494;2023-09-19T13:22:52;100696.06;;;20.72;100.00
47897;BME280;39629;51.400;5.494;2023-09-19T13:27:57;100707.06;;;20.66;100.00
47897;BME280;39629;51.400;5.494;2023-09-19T13:33:08;100704.22;;;20.31;100.00
47897;BME280;39629;51.400;5.494;2023-09-19T13:38:11;100707.94;;;20.27;100.00
47897;BME280;39629;51.400;5.494;2023-09-19T13:43:13;100710.50;;;19.89;100.00
47897;BME280;39629;51.400;5.494;2023-09-19T13:48:15;100713.59;;;19.80;100.00
47897;BME280;39629;51.400;5.494;2023-09-19T13:53:23;100712.19;;;19.91;100.00
47897;BME280;39629;51.400;5.494;2023-09-19T13:58:26;100716.59;;;19.72;100.00
47897;BME280;39629;51.400;5.494;2023-09-19T14:03:28;100687.34;;;19.69;100.00
47897;BME280;39629;51.400;5.494;2023-09-19T14:08:31;100696.38;;;19.87;100.00
47897;BME280;39629;51.400;5.494;2023-09-19T14:13:34;100693.22;;;19.98;100.00
47897;BME280;39629;51.400;5.494;2023-09-19T14:18:35;100689.63;;;19.78;100.00
47897;BME280;39629;51.400;5.494;2023-09-19T14:23:38;100692.56;;;19.72;100.00
47897;BME280;39629;51.400;5.494;2023-09-19T14:28:41;100690.69;;;19.74;100.00
47897;BME280;39629;51.400;5.494;2023-09-19T14:33:43;100707.97;;;20.06;100.00
47897;BME280;39629;51.400;5.494;2023-09-19T14:38:46;100690.78;;;20.12;100.00
47897;BME280;39629;51.400;5.494;2023-09-19T14:43:48;100680.59;;;20.01;100.00
47897;BME280;39629;51.400;5.494;2023-09-19T14:48:50;100677.91;;;20.01;100.00
47897;BME280;39629;51.400;5.494;2023-09-19T14:53:54;100671.97;;;19.95;100.00
47897;BME280;39629;51.400;5.494;2023-09-19T14:58:56;100682.19;;;19.85;100.00
47897;BME280;39629;51.400;5.494;2023-09-19T15:03:57;100683.94;;;19.65;100.00
47897;BME280;39629;51.400;5.494;2023-09-19T15:09:02;100673.69;;;19.56;100.00
47897;BME280;39629;51.400;5.494;2023-09-19T15:14:05;100667.53;;;19.74;100.00
47897;BME280;39629;51.400;5.494;2023-09-19T15:19:06;100675.16;;;19.84;100.00
47897;BME280;39629;51.400;5.494;2023-09-19T15:24:10;100671.47;;;19.66;100.00
47897;BME280;39629;51.400;5.494;2023-09-19T15:29:11;100662.56;;;19.86;100.00
47897;BME280;39629;51.400;5.494;2023-09-19T15:34:13;100656.09;;;19.91;100.00
47897;BME280;39629;51.400;5.494;2023-09-19T15:39:17;100660.44;;;19.53;100.00
47897;BME280;39629;51.400;5.494;2023-09-19T15:44:22;100668.97;;;19.40;100.00
47897;BME280;39629;51.400;5.494;2023-09-19T15:49:26;100659.31;;;19.36;100.00
47897;BME280;39629;51.400;5.494;2023-09-19T15:54:29;100662.72;;;19.19;100.00
47897;BME280;39629;51.400;5.494;2023-09-19T15:59:35;100657.16;;;19.03;100.00
47897;BME280;39629;51.400;5.494;2023-09-19T16:04:36;100657.94;;;19.05;100.00
47897;BME280;39629;51.400;5.494;2023-09-19T16:09:40;100662.72;;;18.97;100.00
47897;BME280;39629;51.400;5.494;2023-09-19T16:14:42;100667.63;;;18.86;100.00
47897;BME280;39629;51.400;5.494;2023-09-19T16:19:43;100668.75;;;18.80;100.00
47897;BME280;39629;51.400;5.494;2023-09-19T16:24:46;100676.75;;;18.80;100.00
47897;BME280;39629;51.400;5.494;2023-09-19T16:29:48;100678.06;;;18.70;100.00
47897;BME280;39629;51.400;5.494;2023-09-19T16:34:50;100681.69;;;18.67;100.00
47897;BME280;39629;51.400;5.494;2023-09-19T16:39:53;100680.31;;;18.57;100.00
47897;BME280;39629;51.400;5.494;2023-09-19T16:44:54;100693.69;;;18.55;100.00
47897;BME280;39629;51.400;5.494;2023-09-19T16:49:56;100695.84;;;18.46;100.00
47897;BME280;39629;51.400;5.494;2023-09-19T16:54:59;100688.06;;;18.39;100.00
47897;BME280;39629;51.400;5.494;2023-09-19T17:00:01;100686.31;;;18.38;100.00
47897;BME280;39629;51.400;5.494;2023-09-19T17:05:04;100676.69;;;18.34;100.00
47897;BME280;39629;51.400;5.494;2023-09-19T17:10:08;100690.09;;;18.33;100.00
47897;BME280;39629;51.400;5.494;2023-09-19T17:15:10;100686.72;;;18.28;100.00
47897;BME280;39629;51.400;5.494;2023-09-19T17:20:11;100677.09;;;18.23;100.00
47897;BME280;39629;51.400;5.494;2023-09-19T17:25:15;100685.09;;;18.23;100.00
47897;BME280;39629;51.400;5.494;2023-09-19T17:30:16;100678.13;;;18.19;100.00
47897;BME280;39629;51.400;5.494;2023-09-19T17:35:19;100682.66;;;18.17;100.00
47897;BME280;39629;51.400;5.494;2023-09-19T17:40:22;100689.78;;;18.17;100.00
47897;BME280;39629;51.400;5.494;2023-09-19T17:45:23;100681.91;;;18.14;100.00
47897;BME280;39629;51.400;5.494;2023-09-19T17:50:25;100688.09;;;18.14;100.00
47897;BME280;39629;51.400;5.494;2023-09-19T17:55:28;100678.66;;;18.05;100.00
47897;BME280;39629;51.400;5.494;2023-09-19T18:00:29;100688.59;;;18.00;100.00
47897;BME280;39629;51.400;5.494;2023-09-19T18:05:31;100692.03;;;18.04;100.00
47897;BME280;39629;51.400;5.494;2023-09-19T18:10:37;100707.69;;;17.88;100.00
47897;BME280;39629;51.400;5.494;2023-09-19T18:15:39;100691.66;;;17.90;100.00
47897;BME280;39629;51.400;5.494;2023-09-19T18:20:41;100701.59;;;17.84;100.00
47897;BME280;39629;51.400;5.494;2023-09-19T18:25:44;100714.13;;;17.81;100.00
47897;BME280;39629;51.400;5.494;2023-09-19T18:30:46;100698.88;;;17.86;100.00
47897;BME280;39629;51.400;5.494;2023-09-19T18:35:48;100692.69;;;17.85;100.00
47897;BME280;39629;51.400;5.494;2023-09-19T18:40:51;100683.88;;;17.83;100.00
47897;BME280;39629;51.400;5.494;2023-09-19T18:45:55;100691.94;;;17.82;100.00
47897;BME280;39629;51.400;5.494;2023-09-19T18:51:02;100699.53;;;17.67;100.00
47897;BME280;39629;51.400;5.494;2023-09-19T18:56:09;100697.56;;;17.73;100.00
47897;BME280;39629;51.400;5.494;2023-09-19T19:01:12;100704.75;;;17.70;100.00
47897;BME280;39629;51.400;5.494;2023-09-19T19:06:16;100699.72;;;17.61;100.00
47897;BME280;39629;51.400;5.494;2023-09-19T19:11:19;100703.69;;;17.49;100.00
47897;BME280;39629;51.400;5.494;2023-09-19T19:16:22;100700.25;;;17.46;100.00
47897;BME280;39629;51.400;5.494;2023-09-19T19:21:26;100706.53;;;17.43;100.00
47897;BME280;39629;51.400;5.494;2023-09-19T19:26:30;100702.25;;;17.39;100.00
47897;BME280;39629;51.400;5.494;2023-09-19T19:31:32;100693.41;;;17.39;100.00
47897;BME280;39629;51.400;5.494;2023-09-19T19:36:37;100703.13;;;17.40;100.00
47897;BME280;39629;51.400;5.494;2023-09-19T19:41:40;100689.72;;;17.43;100.00
47897;BME280;39629;51.400;5.494;2023-09-19T19:46:44;100690.00;;;17.33;100.00
47897;BME280;39629;51.400;5.494;2023-09-19T19:51:45;100697.59;;;17.46;100.00
47897;BME280;39629;51.400;5.494;2023-09-19T19:56:49;100689.72;;;17.43;100.00
47897;BME280;39629;51.400;5.494;2023-09-19T20:01:51;100679.09;;;17.43;100.00
47897;BME280;39629;51.400;5.494;2023-09-19T20:06:53;100686.78;;;17.50;100.00
47897;BME280;39629;51.400;5.494;2023-09-19T20:11:55;100677.16;;;17.48;100.00
47897;BME280;39629;51.400;5.494;2023-09-19T20:16:57;100682.41;;;17.49;100.00
47897;BME280;39629;51.400;5.494;2023-09-19T20:22:00;100691.09;;;17.54;100.00
47897;BME280;39629;51.400;5.494;2023-09-19T20:27:04;100699.97;;;17.55;100.00
47897;BME280;39629;51.400;5.494;2023-09-19T20:32:07;100692.72;;;17.59;100.00
47897;BME280;39629;51.400;5.494;2023-09-19T20:37:09;100692.09;;;17.52;100.00
47897;BME280;39629;51.400;5.494;2023-09-19T20:42:12;100694.75;;;17.52;100.00
47897;BME280;39629;51.400;5.494;2023-09-19T20:47:13;100704.38;;;17.54;100.00
47897;BME280;39629;51.400;5.494;2023-09-19T20:52:15;100693.81;;;17.53;100.00
47897;BME280;39629;51.400;5.494;2023-09-19T20:57:18;100694.81;;;17.49;100.00
47897;BME280;39629;51.400;5.494;2023-09-19T21:02:20;100688.28;;;17.59;100.00
47897;BME280;39629;51.400;5.494;2023-09-19T21:07:21;100682.28;;;17.52;100.00
47897;BME280;39629;51.400;5.494;2023-09-19T21:12:25;100681.44;;;17.52;100.00
47897;BME280;39629;51.400;5.494;2023-09-19T21:17:26;100690.94;;;17.59;100.00
47897;BME280;39629;51.400;5.494;2023-09-19T21:22:29;100681.22;;;17.58;100.00
47897;BME280;39629;51.400;5.494;2023-09-19T21:27:32;100676.13;;;17.52;100.00
47897;BME280;39629;51.400;5.494;2023-09-19T21:32:33;100676.72;;;17.60;100.00
47897;BME280;39629;51.400;5.494;2023-09-19T21:37:36;100669.00;;;17.52;100.00
47897;BME280;39629;51.400;5.494;2023-09-19T21:42:39;100659.22;;;17.53;100.00
47897;BME280;39629;51.400;5.494;2023-09-19T21:47:41;100655.91;;;17.46;100.00
47897;BME280;39629;51.400;5.494;2023-09-19T21:52:43;100664.09;;;17.40;100.00
47897;BME280;39629;51.400;5.494;2023-09-19T21:57:46;100662.47;;;17.34;100.00
47897;BME280;39629;51.400;5.494;2023-09-19T22:02:47;100669.53;;;17.35;100.00
47897;BME280;39629;51.400;5.494;2023-09-19T22:07:49;100671.47;;;17.30;100.00
47897;BME280;39629;51.400;5.494;2023-09-19T22:12:52;100668.59;;;17.36;100.00
47897;BME280;39629;51.400;5.494;2023-09-19T22:17:55;100669.53;;;17.35;100.00
47897;BME280;39629;51.400;5.494;2023-09-19T22:22:58;100672.41;;;17.29;100.00
47897;BME280;39629;51.400;5.494;2023-09-19T22:28:01;100666.38;;;17.24;100.00
47897;BME280;39629;51.400;5.494;2023-09-19T22:33:04;100656.53;;;17.26;100.00
47897;BME280;39629;51.400;5.494;2023-09-19T22:38:09;100655.13;;;17.16;100.00
47897;BME280;39629;51.400;5.494;2023-09-19T22:43:12;100657.22;;;17.06;100.00
47897;BME280;39629;51.400;5.494;2023-09-19T22:48:15;100649.28;;;17.04;100.00
47897;BME280;39629;51.400;5.494;2023-09-19T22:53:16;100639.66;;;17.00;100.00
47897;BME280;39629;51.400;5.494;2023-09-19T22:58:22;100647.06;;;16.91;100.00
47897;BME280;39629;51.400;5.494;2023-09-19T23:03:23;100660.50;;;16.86;100.00
47897;BME280;39629;51.400;5.494;2023-09-19T23:08:28;100650.72;;;16.88;100.00
47897;BME280;39629;51.400;5.494;2023-09-19T23:13:32;100646.50;;;16.81;100.00
47897;BME280;39629;51.400;5.494;2023-09-19T23:18:38;100650.09;;;16.80;100.00
47897;BME280;39629;51.400;5.494;2023-09-19T23:23:39;100649.06;;;16.84;100.00
47897;BME280;39629;51.400;5.494;2023-09-19T23:28:43;100645.91;;;16.71;100.00
47897;BME280;39629;51.400;5.494;2023-09-19T23:33:50;100643.09;;;16.77;100.00
47897;BME280;39629;51.400;5.494;2023-09-19T23:38:52;100644.31;;;16.65;100.00
47897;BME280;39629;51.400;5.494;2023-09-19T23:43:59;100654.16;;;16.63;100.00
47897;BME280;39629;51.400;5.494;2023-09-19T23:49:01;100651.66;;;16.57;100.00
47897;BME280;39629;51.400;5.494;2023-09-19T23:54:08;100658.91;;;16.52;100.00
47897;BME280;39629;51.400;5.494;2023-09-19T23:59:15;100668.16;;;16.39;100.00
